Time;durP1;ratioP1;P1;durP2;ratioP2;P2;SDS_P1;SDS_P2;PMS_P1;PMS_P2;Temp;Humidity;BMP_temperature;BMP_pressure;BME280_temperature;BME280_humidity;BME280_pressure;Samples;Min_cycle;Max_cycle;Signal;HPM_P1;HPM_P2
2023/11/27 00:00:07;;;;;;;3.25;1.50;;;;;;;-1.85;69.20;92454.34;2051314;70;20161;-81
2023/11/27 00:02:33;;;;;;;5.22;1.50;;;;;;;-1.71;69.18;92446.00;2054634;70;20789;-82
2023/11/27 00:04:59;;;;;;;2.55;1.45;;;;;;;-1.80;68.55;92442.44;2050788;69;20146;-81
2023/11/27 00:07:25;;;;;;;1.90;1.20;;;;;;;-1.80;68.76;92434.16;2047683;70;20657;-82
2023/11/27 00:09:52;;;;;;;3.17;1.40;;;;;;;-1.65;68.29;92427.28;2044372;70;20229;-81
2023/11/27 00:12:20;;;;;;;1.73;1.10;;;;;;;-1.74;67.72;92431.28;2047931;70;20158;-82
2023/11/27 00:14:46;;;;;;;3.97;1.58;;;;;;;-2.35;71.30;92425.84;2044213;70;20138;-82
2023/11/27 00:17:12;;;;;;;4.32;1.92;;;;;;;-2.38;71.60;92432.44;2047922;70;20225;-83
2023/11/27 00:19:38;;;;;;;5.43;2.17;;;;;;;-2.06;70.17;92437.03;2047830;70;20150;-83
2023/11/27 00:22:08;;;;;;;3.67;1.90;;;;;;;-2.03;69.95;92438.69;2046881;70;20696;-83
2023/11/27 00:24:35;;;;;;;3.50;1.67;;;;;;;-1.97;70.05;92430.28;2047711;70;20194;-82
2023/11/27 00:27:00;;;;;;;2.70;1.50;;;;;;;-1.92;70.00;92427.41;2044146;70;20154;-82
2023/11/27 00:29:28;;;;;;;4.32;1.45;;;;;;;-2.43;71.86;92429.78;2044252;70;20123;-82
2023/11/27 00:31:54;;;;;;;1.85;1.38;;;;;;;-1.95;70.60;92422.97;2043860;70;20151;-82
2023/11/27 00:34:20;;;;;;;3.05;1.73;;;;;;;-1.97;69.83;92416.50;2044383;70;20173;-81
2023/11/27 00:36:45;;;;;;;2.92;1.70;;;;;;;-1.95;69.77;92413.97;2044128;70;20131;-82
2023/11/27 00:39:11;;;;;;;11.70;2.95;;;;;;;-1.88;69.59;92414.03;2044295;70;20198;-83
2023/11/27 00:41:38;;;;;;;2.15;1.40;;;;;;;-1.83;69.15;92401.38;2044271;70;20583;-83
2023/11/27 00:44:04;;;;;;;4.70;1.73;;;;;;;-1.81;69.32;92404.34;2044227;70;20226;-82
2023/11/27 00:46:30;;;;;;;3.05;1.60;;;;;;;-1.82;68.97;92398.09;2044134;70;20148;-82
2023/11/27 00:48:56;;;;;;;2.33;1.50;;;;;;;-1.89;69.90;92393.22;2047722;70;20539;-82
2023/11/27 00:51:22;;;;;;;2.47;1.50;;;;;;;-2.01;70.41;92386.50;2047709;70;20150;-83
2023/11/27 00:53:48;;;;;;;1.75;1.45;;;;;;;-1.92;69.69;92397.06;2043856;70;20587;-82
2023/11/27 00:56:14;;;;;;;2.05;1.50;;;;;;;-2.09;70.46;92405.00;2044000;70;20217;-81
2023/11/27 00:58:39;;;;;;;3.70;1.60;;;;;;;-2.12;70.58;92395.75;2044225;70;20151;-82
2023/11/27 01:01:05;;;;;;;2.42;1.50;;;;;;;-2.00;69.92;92404.53;2047418;70;20159;-82
2023/11/27 01:03:32;;;;;;;2.10;1.50;;;;;;;-2.00;69.58;92404.53;2043636;70;20237;-82
2023/11/27 01:05:58;;;;;;;3.05;1.60;;;;;;;-2.02;69.76;92403.56;2047435;70;20162;-82
2023/11/27 01:08:24;;;;;;;2.92;1.50;;;;;;;-2.05;69.76;92408.16;2047541;70;20154;-82
2023/11/27 01:10:51;;;;;;;4.10;1.67;;;;;;;-2.07;69.79;92399.66;2047558;70;20924;-82
2023/11/27 01:13:19;;;;;;;2.47;1.55;;;;;;;-2.22;69.84;92399.53;2047646;70;20523;-82
2023/11/27 01:15:45;;;;;;;1.83;1.50;;;;;;;-2.22;70.24;92397.50;2044041;70;20145;-82
2023/11/27 01:18:11;;;;;;;3.10;1.60;;;;;;;-2.19;69.72;92388.16;2047424;70;20229;-82
2023/11/27 01:20:36;;;;;;;4.15;1.50;;;;;;;-2.19;70.09;92387.44;2043924;70;20306;-82
2023/11/27 01:23:02;;;;;;;3.10;1.70;;;;;;;-2.13;69.72;92377.75;2044023;70;20174;-82
2023/11/27 01:25:29;;;;;;;4.43;1.50;;;;;;;-2.11;69.69;92382.69;2043927;70;20213;-82
2023/11/27 01:27:55;;;;;;;4.15;1.70;;;;;;;-2.03;69.69;92375.25;2043641;70;20158;-83
2023/11/27 01:30:20;;;;;;;2.35;1.40;;;;;;;-2.01;69.43;92380.25;2047797;70;20143;-83
2023/11/27 01:32:46;;;;;;;3.13;1.88;;;;;;;-2.00;69.94;92370.69;2048042;70;20594;-82
2023/11/27 01:35:15;;;;;;;2.25;1.50;;;;;;;-1.89;69.81;92364.88;2047539;70;20202;-82
2023/11/27 01:37:41;;;;;;;2.75;1.40;;;;;;;-1.89;71.11;92364.88;2047455;70;20194;-82
2023/11/27 01:40:07;;;;;;;1.60;1.23;;;;;;;-1.78;71.64;92358.38;2043693;70;20282;-82
2023/11/27 01:42:33;;;;;;;1.65;1.30;;;;;;;-1.84;70.91;92336.41;2043743;70;20233;-83
2023/11/27 01:44:59;;;;;;;3.95;1.63;;;;;;;-1.99;71.19;92353.59;2043772;70;20150;-83
2023/11/27 01:47:25;;;;;;;2.97;2.38;;;;;;;-1.96;71.77;92352.53;2047527;70;20169;-82
2023/11/27 01:49:51;;;;;;;4.47;1.88;;;;;;;-1.89;71.78;92353.84;2043912;70;20154;-83
2023/11/27 01:52:18;;;;;;;3.83;1.50;;;;;;;-1.90;71.64;92344.09;2043771;70;20209;-83
2023/11/27 01:54:46;;;;;;;2.88;1.95;;;;;;;-1.70;71.37;92359.16;2043857;70;20280;-82
2023/11/27 01:57:15;;;;;;;4.30;1.70;;;;;;;-1.68;71.08;92343.56;2043732;70;20157;-82
2023/11/27 01:59:45;;;;;;;2.47;1.35;;;;;;;-1.62;71.09;92335.13;2044070;70;20147;-82
2023/11/27 02:02:13;;;;;;;3.33;1.42;;;;;;;-1.57;70.66;92323.94;2043711;70;20723;-81
2023/11/27 02:04:39;;;;;;;2.03;1.45;;;;;;;-1.50;70.47;92327.31;2041152;70;20190;-81
2023/11/27 02:07:06;;;;;;;2.03;1.48;;;;;;;-1.49;70.27;92326.75;2043918;70;20135;-82
2023/11/27 02:09:35;;;;;;;1.95;1.30;;;;;;;-1.60;70.47;92316.00;2044440;70;20151;-81
2023/11/27 02:12:02;;;;;;;3.22;1.38;;;;;;;-1.52;70.46;92327.81;2043944;70;20158;-82
2023/11/27 02:14:29;;;;;;;2.03;1.30;;;;;;;-1.69;70.74;92333.81;2043887;70;20159;-82
2023/11/27 02:16:54;;;;;;;3.13;1.33;;;;;;;-1.51;70.84;92323.03;2041301;70;20147;-82
2023/11/27 02:19:20;;;;;;;4.45;1.30;;;;;;;-1.52;70.40;92316.78;2043701;70;20154;-82
2023/11/27 02:21:46;;;;;;;3.85;1.55;;;;;;;-1.63;70.63;92328.88;2047516;70;20217;-81
2023/11/27 02:24:12;;;;;;;3.05;1.35;;;;;;;-1.51;71.00;92332.09;2047804;70;20236;-82
2023/11/27 02:26:38;;;;;;;1.88;1.35;;;;;;;-1.45;70.42;92324.41;2043873;70;20157;-82
2023/11/27 02:29:04;;;;;;;3.05;1.52;;;;;;;-1.48;70.45;92314.41;2046591;70;20142;-82
2023/11/27 02:31:31;;;;;;;2.22;1.38;;;;;;;-1.47;70.39;92313.13;2043845;70;20143;-82
2023/11/27 02:33:57;;;;;;;3.03;1.52;;;;;;;-1.39;70.83;92322.22;2041382;70;20187;-82
2023/11/27 02:36:27;;;;;;;3.20;1.60;;;;;;;-1.25;70.42;92322.09;2043835;70;20142;-82
2023/11/27 02:38:53;;;;;;;2.35;1.30;;;;;;;-1.26;70.79;92317.88;2047553;70;20621;-82
2023/11/27 02:41:19;;;;;;;3.42;2.03;;;;;;;-2.07;73.22;92319.69;2047494;70;20236;-82
2023/11/27 02:43:45;;;;;;;3.20;2.17;;;;;;;-1.69;72.73;92311.72;2043654;70;20161;-83
2023/11/27 02:46:13;;;;;;;3.25;1.90;;;;;;;-1.43;71.83;92312.78;2043829;70;20178;-82
2023/11/27 02:48:39;;;;;;;3.90;2.10;;;;;;;-1.56;72.01;92316.38;2047245;70;20154;-83
2023/11/27 02:51:05;;;;;;;3.13;1.60;;;;;;;-1.72;72.98;92314.81;2047477;70;20141;-83
2023/11/27 02:53:32;;;;;;;2.78;1.35;;;;;;;-1.52;71.86;92316.78;2047563;70;20226;-82
2023/11/27 02:55:58;;;;;;;3.20;1.73;;;;;;;-1.45;71.58;92310.59;2043915;70;20158;-82
2023/11/27 02:58:25;;;;;;;3.65;2.05;;;;;;;-1.42;71.05;92301.22;2044357;70;20151;-82
2023/11/27 03:00:51;;;;;;;4.10;2.00;;;;;;;-1.42;71.38;92303.22;2044296;70;20257;-82
2023/11/27 03:03:17;;;;;;;5.35;1.95;;;;;;;-1.42;71.65;92304.00;2044270;70;20261;-82
2023/11/27 03:05:43;;;;;;;3.53;1.77;;;;;;;-1.43;71.75;92301.75;2044434;70;20162;-83
2023/11/27 03:08:10;;;;;;;3.92;1.90;;;;;;;-1.91;72.69;92295.72;2044143;70;20174;-83
2023/11/27 03:10:36;;;;;;;4.03;2.00;;;;;;;-1.50;72.37;92300.44;2044430;70;20145;-83
2023/11/27 03:13:02;;;;;;;2.85;1.90;;;;;;;-1.48;72.10;92294.34;2044390;70;20146;-83
2023/11/27 03:15:28;;;;;;;3.78;2.08;;;;;;;-1.32;71.57;92298.69;2044136;70;20131;-82
2023/11/27 03:17:54;;;;;;;2.75;1.73;;;;;;;-1.24;71.49;92309.78;2047791;70;20154;-82
2023/11/27 03:20:19;;;;;;;5.07;1.85;;;;;;;-1.26;71.57;92304.81;2044137;70;20178;-82
2023/11/27 03:22:45;;;;;;;3.75;1.70;;;;;;;-1.20;71.09;92299.84;2044120;70;20146;-83
2023/11/27 03:25:11;;;;;;;5.50;1.77;;;;;;;-1.26;71.46;92296.50;2044340;70;20194;-83
2023/11/27 03:27:37;;;;;;;2.60;1.80;;;;;;;-1.37;71.39;92289.28;2044112;70;20143;-82
2023/11/27 03:30:03;;;;;;;3.65;2.03;;;;;;;-1.25;71.46;92286.94;2044105;70;20162;-83
2023/11/27 03:32:30;;;;;;;5.30;2.08;;;;;;;-1.26;72.24;92285.47;2047859;70;20146;-83
2023/11/27 03:34:57;;;;;;;2.90;1.92;;;;;;;-1.21;71.09;92286.59;2044270;70;20595;-83
2023/11/27 03:37:23;;;;;;;2.53;1.50;;;;;;;-1.19;71.19;92289.53;2044514;70;20615;-83
2023/11/27 03:39:51;;;;;;;3.00;1.40;;;;;;;-1.17;71.29;92296.00;2047944;70;20138;-83
2023/11/27 03:42:17;;;;;;;1.70;1.30;;;;;;;-1.12;70.52;92303.41;2044259;70;20457;-82
2023/11/27 03:44:42;;;;;;;2.75;1.55;;;;;;;-1.21;71.23;92289.34;2046910;70;20158;-83
2023/11/27 03:47:08;;;;;;;1.42;0.98;;;;;;;-1.10;71.40;92300.09;2044049;70;20146;-82
2023/11/27 03:49:33;;;;;;;3.95;1.20;;;;;;;-1.07;70.76;92293.47;2046340;70;20154;-83
2023/11/27 03:52:01;;;;;;;2.33;1.10;;;;;;;-1.06;71.33;92292.94;2054396;70;20166;-84
2023/11/27 03:54:28;;;;;;;2.20;1.17;;;;;;;-1.00;71.13;92281.75;2054369;70;20593;-85
2023/11/27 03:56:54;;;;;;;1.88;1.00;;;;;;;-1.03;71.35;92291.84;2051009;70;20144;-85
2023/11/27 03:59:20;;;;;;;1.05;0.90;;;;;;;-1.05;71.76;92283.38;2054477;70;20596;-83
2023/11/27 04:01:46;;;;;;;1.50;1.00;;;;;;;-0.95;71.03;92285.63;2051035;70;20243;-83
2023/11/27 04:04:14;;;;;;;3.50;0.82;;;;;;;-1.06;70.51;92278.38;2051164;70;20635;-82
2023/11/27 04:06:40;;;;;;;1.70;1.00;;;;;;;-0.90;69.22;92274.41;2054318;70;20233;-83
2023/11/27 04:09:06;;;;;;;1.95;0.90;;;;;;;-0.91;69.67;92270.16;2051254;70;20594;-83
2023/11/27 04:11:32;;;;;;;1.73;0.90;;;;;;;-0.92;69.48;92265.16;2054494;70;20601;-82
2023/11/27 04:13:58;;;;;;;1.30;1.07;;;;;;;-0.89;69.62;92253.75;2051329;70;20158;-82
2023/11/27 04:16:24;;;;;;;1.50;1.00;;;;;;;-0.89;69.37;92259.28;2051392;70;20189;-82
2023/11/27 04:18:50;;;;;;;1.42;0.90;;;;;;;-0.93;69.70;92250.63;2054763;70;20241;-81
2023/11/27 04:21:17;;;;;;;2.60;1.30;;;;;;;-1.23;70.20;92259.53;2054540;70;20142;-82
2023/11/27 04:23:46;;;;;;;3.13;1.30;;;;;;;-1.02;70.68;92256.66;2054562;70;20147;-82
2023/11/27 04:26:14;;;;;;;3.03;1.42;;;;;;;-1.02;70.32;92245.59;2054332;70;20718;-82
2023/11/27 04:28:41;;;;;;;2.13;1.23;;;;;;;-0.94;70.11;92240.84;2054117;70;20260;-82
2023/11/27 04:31:08;;;;;;;1.60;0.93;;;;;;;-0.87;69.86;92237.38;2051225;70;20172;-83
2023/11/27 04:33:34;;;;;;;4.40;1.27;;;;;;;-0.94;69.84;92234.59;2054338;70;20182;-82
2023/11/27 04:36:00;;;;;;;2.70;0.95;;;;;;;-0.83;69.89;92228.72;2054086;70;20272;-82
2023/11/27 04:38:26;;;;;;;2.25;0.80;;;;;;;-0.89;69.36;92219.88;2050912;70;20648;-83
2023/11/27 04:40:51;;;;;;;1.52;0.75;;;;;;;-0.80;69.57;92222.84;2054220;70;20178;-82
2023/11/27 04:43:17;;;;;;;4.47;1.23;;;;;;;-0.89;68.75;92222.63;2054174;70;20189;-82
2023/11/27 04:45:43;;;;;;;1.30;0.90;;;;;;;-0.79;68.16;92216.00;2054351;70;20146;-82
2023/11/27 04:48:09;;;;;;;3.45;0.90;;;;;;;-0.82;67.18;92214.38;2051160;70;20213;-82
2023/11/27 04:50:34;;;;;;;2.08;1.45;;;;;;;-0.74;67.09;92213.63;2054610;70;20150;-82
2023/11/27 04:53:00;;;;;;;2.65;1.83;;;;;;;-0.70;67.52;92211.25;2054621;70;20158;-82
2023/11/27 04:55:26;;;;;;;3.22;2.10;;;;;;;-0.90;66.70;92210.84;2054608;70;20530;-81
2023/11/27 04:57:51;;;;;;;4.55;1.73;;;;;;;-1.16;67.93;92202.84;2054590;70;20582;-81
2023/11/27 05:00:17;;;;;;;3.47;1.80;;;;;;;-1.13;68.66;92204.50;2054668;70;20530;-81
2023/11/27 05:02:46;;;;;;;5.25;2.22;;;;;;;-1.09;68.67;92200.09;2051223;70;20221;-81
2023/11/27 05:05:14;;;;;;;5.20;2.00;;;;;;;-0.87;67.88;92200.69;2054542;70;20157;-82
2023/11/27 05:07:41;;;;;;;3.65;2.00;;;;;;;-1.11;68.74;92193.63;2054628;70;20172;-82
2023/11/27 05:10:07;;;;;;;7.43;3.55;;;;;;;-1.39;70.82;92197.22;2051633;70;20141;-83
2023/11/27 05:12:33;;;;;;;11.20;5.60;;;;;;;-1.05;70.12;92194.97;2051276;70;20153;-83
2023/11/27 05:14:59;;;;;;;15.20;7.32;;;;;;;-0.92;69.13;92199.59;2054383;70;20161;-82
2023/11/27 05:17:24;;;;;;;8.35;4.45;;;;;;;-1.06;69.29;92176.16;2054664;70;20154;-83
2023/11/27 05:19:51;;;;;;;8.35;4.63;;;;;;;-1.32;70.58;92191.00;2054666;70;20229;-83
2023/11/27 05:22:17;;;;;;;9.80;4.88;;;;;;;-1.18;70.81;92189.56;2054661;70;20141;-82
2023/11/27 05:24:42;;;;;;;9.30;3.88;;;;;;;-1.07;69.89;92180.94;2054251;70;20161;-81
2023/11/27 05:27:08;;;;;;;9.65;5.95;;;;;;;-0.96;69.84;92173.59;2054700;70;20149;-83
2023/11/27 05:29:34;;;;;;;22.42;8.10;;;;;;;-1.12;70.75;92187.38;2057403;70;20336;-82
2023/11/27 05:32:07;;;;;;;22.38;9.63;;;;;;;-1.39;71.34;92175.13;2056205;70;20150;-82
2023/11/27 05:34:36;;;;;;;28.50;10.05;;;;;;;-1.12;70.77;92178.34;2054717;70;20142;-84
2023/11/27 05:37:08;;;;;;;19.83;8.30;;;;;;;-1.05;70.39;92174.88;2051487;70;20146;-83
2023/11/27 05:39:35;;;;;;;;;;;;;;;-1.54;72.26;92173.06;2054941;70;20150;-83
2023/11/27 05:42:02;;;;;;;16.90;6.88;;;;;;;-1.38;72.79;92169.06;2054737;70;20054;-83
2023/11/27 05:44:28;;;;;;;17.52;7.55;;;;;;;-1.30;71.49;92172.59;2054741;70;20180;-82
2023/11/27 05:46:54;;;;;;;21.90;7.47;;;;;;;-1.25;71.17;92168.19;2054676;70;20174;-83
2023/11/27 05:49:20;;;;;;;15.38;6.50;;;;;;;-1.36;72.43;92172.03;2054656;70;20233;-83
2023/11/27 05:51:46;;;;;;;16.85;7.38;;;;;;;-1.29;71.67;92173.31;2055747;70;20264;-83
2023/11/27 05:54:11;;;;;;;9.13;2.80;;;;;;;-1.65;73.03;92174.13;2054603;70;20142;-84
2023/11/27 05:56:37;;;;;;;5.35;2.70;;;;;;;-1.85;72.94;92172.88;2055557;70;20193;-84
2023/11/27 05:59:03;;;;;;;4.80;2.45;;;;;;;-2.06;74.08;92172.22;2054683;70;20189;-83
2023/11/27 06:01:29;;;;;;;4.25;2.15;;;;;;;-1.95;74.27;92174.69;2054553;70;20241;-83
2023/11/27 06:03:55;;;;;;;4.93;2.05;;;;;;;-1.72;73.22;92174.81;2054487;70;20153;-83
2023/11/27 06:06:21;;;;;;;5.13;2.45;;;;;;;-1.65;72.37;92167.84;2054556;70;20161;-83
2023/11/27 06:08:47;;;;;;;6.05;2.45;;;;;;;-1.61;72.00;92163.44;2054608;70;20153;-82
2023/11/27 06:11:13;;;;;;;5.00;2.65;;;;;;;-1.59;71.90;92163.66;2054561;70;20150;-83
2023/11/27 06:13:41;;;;;;;6.53;2.75;;;;;;;-1.56;71.97;92165.31;2054508;70;20205;-83
2023/11/27 06:16:08;;;;;;;8.15;3.28;;;;;;;-1.62;72.25;92166.75;2054568;70;20150;-85
2023/11/27 06:18:34;;;;;;;4.35;2.70;;;;;;;-1.69;72.14;92156.44;2054521;70;20153;-83
2023/11/27 06:21:00;;;;;;;5.57;3.08;;;;;;;-1.65;71.83;92160.31;2054587;70;20674;-83
2023/11/27 06:23:26;;;;;;;5.68;3.10;;;;;;;-1.76;71.76;92149.56;2054543;70;20140;-83
2023/11/27 06:25:51;;;;;;;6.22;3.67;;;;;;;-1.73;72.39;92145.72;2051082;70;20170;-84
2023/11/27 06:28:17;;;;;;;8.57;3.83;;;;;;;-1.73;71.69;92139.47;2054465;70;20284;-82
2023/11/27 06:30:42;;;;;;;6.90;3.60;;;;;;;-1.78;71.87;92154.19;2051113;70;20154;-82
2023/11/27 06:33:09;;;;;;;6.72;3.70;;;;;;;-1.88;71.95;92143.66;2054502;70;20177;-83
2023/11/27 06:35:35;;;;;;;6.30;3.65;;;;;;;-2.02;72.90;92147.03;2054545;70;20351;-83
2023/11/27 06:38:02;;;;;;;4.82;3.17;;;;;;;-2.00;72.63;92134.19;2054542;70;20149;-83
2023/11/27 06:40:28;;;;;;;6.75;2.40;;;;;;;-1.88;71.73;92154.69;2054439;70;20191;-83
2023/11/27 06:42:55;;;;;;;5.05;2.80;;;;;;;-1.95;71.30;92143.59;2054603;70;20593;-82
2023/11/27 06:45:21;;;;;;;6.65;4.07;;;;;;;-1.96;71.50;92136.59;2054634;70;20212;-83
2023/11/27 06:47:48;;;;;;;5.68;3.75;;;;;;;-2.00;71.19;92128.69;2054582;70;20154;-83
2023/11/27 06:50:14;;;;;;;4.85;3.15;;;;;;;-2.02;71.20;92125.69;2054461;70;20308;-83
2023/11/27 06:52:40;;;;;;;4.53;2.60;;;;;;;-1.92;70.99;92112.91;2054544;70;20208;-84
2023/11/27 06:55:06;;;;;;;3.38;1.55;;;;;;;-2.02;71.86;92122.94;2054371;70;20149;-84
2023/11/27 06:57:32;;;;;;;8.18;4.43;;;;;;;-2.64;75.24;92121.09;2054324;70;20526;-84
2023/11/27 06:59:57;;;;;;;8.07;4.10;;;;;;;-2.47;74.68;92121.41;2054439;70;20622;-83
2023/11/27 07:02:25;;;;;;;6.95;4.45;;;;;;;-2.16;73.11;92116.81;2054353;70;20146;-83
2023/11/27 07:04:51;;;;;;;8.75;4.78;;;;;;;-2.07;72.82;92112.81;2053280;69;20254;-83
2023/11/27 07:07:17;;;;;;;8.65;4.97;;;;;;;-2.09;72.92;92116.13;2048066;70;20151;-83
2023/11/27 07:09:42;;;;;;;7.78;4.57;;;;;;;-2.00;73.02;92119.66;2047970;70;20154;-83
2023/11/27 07:12:08;;;;;;;6.32;3.90;;;;;;;-1.96;72.54;92118.03;2047758;70;20614;-84
2023/11/27 07:14:33;;;;;;;10.73;4.82;;;;;;;-2.26;73.47;92123.38;2047892;70;20174;-83
2023/11/27 07:16:59;;;;;;;9.82;5.50;;;;;;;-1.98;72.86;92117.81;2047867;70;20150;-83
2023/11/27 07:19:25;;;;;;;8.93;4.63;;;;;;;-2.03;72.88;92112.47;2047773;70;20154;-84
2023/11/27 07:21:51;;;;;;;7.70;4.70;;;;;;;-1.87;72.90;92114.75;2047916;70;20154;-83
2023/11/27 07:24:17;;;;;;;10.05;5.22;;;;;;;-1.80;72.46;92108.53;2044358;70;20151;-83
2023/11/27 07:26:43;;;;;;;12.00;5.95;;;;;;;-1.70;72.09;92103.22;2047620;70;20143;-83
2023/11/27 07:29:09;;;;;;;11.93;5.90;;;;;;;-1.77;72.14;92100.47;2047768;70;20506;-84
2023/11/27 07:31:37;;;;;;;13.35;7.10;;;;;;;-1.97;73.64;92093.72;2047850;70;20158;-83
2023/11/27 07:34:02;;;;;;;12.82;7.10;;;;;;;-1.76;72.83;92088.88;2047901;70;20138;-83
2023/11/27 07:36:29;;;;;;;17.63;11.77;;;;;;;-2.04;74.01;92086.91;2047725;70;20519;-82
2023/11/27 07:38:55;;;;;;;26.30;17.83;;;;;;;-1.72;73.09;92085.75;2044295;70;20155;-83
2023/11/27 07:41:22;;;;;;;14.32;9.35;;;;;;;-1.76;72.57;92079.84;2044125;70;20672;-83
2023/11/27 07:43:48;;;;;;;17.70;10.27;;;;;;;-1.65;71.81;92085.78;2048343;70;20166;-83
2023/11/27 07:46:14;;;;;;;15.18;9.95;;;;;;;-1.50;71.74;92090.63;2048264;70;20599;-83
2023/11/27 07:48:42;;;;;;;20.00;11.00;;;;;;;-1.59;72.13;92083.59;2048435;70;20157;-83
2023/11/27 07:51:09;;;;;;;16.13;11.13;;;;;;;-1.52;71.49;92082.13;2048931;70;20265;-84
2023/11/27 07:53:35;;;;;;;15.45;9.68;;;;;;;-1.61;71.75;92064.06;2048409;70;20147;-84
2023/11/27 07:56:02;;;;;;;15.90;8.82;;;;;;;-1.58;72.18;92078.81;2048155;70;20229;-84
2023/11/27 07:58:28;;;;;;;15.82;8.10;;;;;;;-1.69;71.56;92059.84;2048190;70;20166;-83
2023/11/27 08:00:54;;;;;;;22.88;9.38;;;;;;;-1.47;71.22;92069.44;2048266;70;20151;-84
2023/11/27 08:03:20;;;;;;;14.65;7.93;;;;;;;-1.56;71.46;92057.66;2044633;70;20171;-82
2023/11/27 08:05:47;;;;;;;11.57;7.07;;;;;;;-1.85;71.64;92059.75;2048272;70;20147;-83
2023/11/27 08:08:14;;;;;;;13.93;7.13;;;;;;;-1.78;72.44;92058.34;2048243;70;20158;-83
2023/11/27 08:10:40;;;;;;;11.98;7.53;;;;;;;-1.62;71.82;92048.06;2044722;70;20678;-82
2023/11/27 08:13:06;;;;;;;13.63;7.78;;;;;;;-1.45;71.24;92050.31;2044599;70;20154;-83
2023/11/27 08:15:32;;;;;;;15.50;7.72;;;;;;;-1.62;71.54;92034.25;2048115;70;20526;-82
2023/11/27 08:18:02;;;;;;;15.13;9.27;;;;;;;-1.59;72.23;92055.25;2048152;70;20158;-82
2023/11/27 08:20:28;;;;;;;15.55;9.10;;;;;;;-1.64;72.16;92034.09;2048330;70;20166;-82
2023/11/27 08:22:57;;;;;;;16.95;9.95;;;;;;;-1.37;71.70;92040.78;2048382;70;20596;-83
2023/11/27 08:25:24;;;;;;;17.90;10.13;;;;;;;-1.45;72.05;92034.50;2048463;70;20575;-83
2023/11/27 08:27:52;;;;;;;17.83;9.95;;;;;;;-1.24;72.02;92034.31;2044529;70;20622;-83
2023/11/27 08:30:19;;;;;;;23.95;12.18;;;;;;;-1.34;75.07;92036.16;2048153;70;20159;-83
2023/11/27 08:32:47;;;;;;;27.23;13.45;;;;;;;-0.98;74.05;92043.56;2048131;70;20133;-80
2023/11/27 08:35:13;;;;;;;26.70;12.80;;;;;;;-0.43;73.24;92042.97;2044495;70;20143;-80
2023/11/27 08:37:41;;;;;;;22.67;13.00;;;;;;;-0.28;71.42;92029.09;2048111;70;20154;-81
2023/11/27 08:40:09;;;;;;;33.20;15.35;;;;;;;-0.06;71.44;92027.56;2048153;70;20138;-79
2023/11/27 08:42:36;;;;;;;30.30;15.40;;;;;;;0.58;70.50;92031.00;2048079;70;20210;-79
2023/11/27 08:45:18;;;;;;;23.85;11.98;;;;;;;0.60;69.14;92020.09;2048113;70;20587;-83
2023/11/27 08:47:51;;;;;;;32.90;13.98;;;;;;;1.01;70.97;92002.09;2048215;70;20150;-80
2023/11/27 08:50:32;;;;;;;30.00;13.27;;;;;;;1.34;68.33;92011.06;2048167;70;20143;-81
2023/11/27 08:52:59;;;;;;;28.40;12.40;;;;;;;1.45;67.70;92005.03;2048024;70;20166;-78
2023/11/27 08:55:29;;;;;;;27.30;11.57;;;;;;;0.56;67.42;92014.94;2048037;70;20183;-79
2023/11/27 08:58:03;;;;;;;16.73;9.18;;;;;;;1.25;68.12;92020.00;2047955;70;20178;-82
2023/11/27 09:00:30;;;;;;;22.33;10.77;;;;;;;1.63;67.73;92016.88;2048156;70;20147;-80
2023/11/27 09:02:57;;;;;;;27.40;12.77;;;;;;;2.29;66.29;92011.72;2047895;70;20154;-80
2023/11/27 09:05:24;;;;;;;21.63;11.35;;;;;;;1.92;64.95;92014.34;2044402;70;20245;-83
2023/11/27 09:07:53;;;;;;;18.27;10.18;;;;;;;2.45;64.48;91990.78;2047872;70;20143;-82
2023/11/27 09:10:20;;;;;;;17.08;8.77;;;;;;;2.62;63.77;91994.84;2047675;70;20504;-80
2023/11/27 09:12:48;;;;;;;13.23;6.97;;;;;;;3.06;61.59;91989.19;2047585;70;20190;-80
2023/11/27 09:15:14;;;;;;;14.43;7.10;;;;;;;3.39;62.74;91986.06;2047985;70;20606;-80
2023/11/27 09:17:40;;;;;;;17.00;8.82;;;;;;;3.40;60.87;91968.81;2047815;70;20154;-81
2023/11/27 09:20:09;;;;;;;16.42;8.98;;;;;;;3.58;60.41;91972.22;2044494;70;20230;-81
2023/11/27 09:22:35;;;;;;;16.77;9.25;;;;;;;3.71;59.27;91968.25;2047692;70;20167;-82
2023/11/27 09:25:01;;;;;;;10.98;6.28;;;;;;;3.85;58.27;91963.00;2047752;70;20233;-80
2023/11/27 09:27:28;;;;;;;7.15;4.03;;;;;;;3.79;58.32;91963.28;2047597;70;20151;-80
2023/11/27 09:29:54;;;;;;;19.58;11.88;;;;;;;3.04;58.45;91955.66;2047828;70;20745;-81
2023/11/27 09:32:20;;;;;;;12.02;6.80;;;;;;;3.20;59.73;91956.88;2047694;70;20643;-81
2023/11/27 09:34:46;;;;;;;10.40;6.47;;;;;;;3.60;59.11;91946.56;2047633;70;20250;-80
2023/11/27 09:37:11;;;;;;;13.05;6.95;;;;;;;3.97;58.32;91941.63;2047667;70;20225;-80
2023/11/27 09:39:37;;;;;;;13.75;6.93;;;;;;;4.67;58.13;91938.88;2044324;70;20516;-82
2023/11/27 09:42:04;;;;;;;13.27;7.47;;;;;;;4.56;56.45;91938.16;2047646;70;20182;-81
2023/11/27 09:44:29;;;;;;;11.23;6.25;;;;;;;3.88;57.74;91929.16;2047712;70;20138;-81
2023/11/27 09:46:57;;;;;;;14.02;6.88;;;;;;;4.39;56.85;91929.25;2047736;70;20143;-82
2023/11/27 09:49:24;;;;;;;13.27;6.90;;;;;;;5.38;56.38;91915.81;2044561;70;20206;-81
2023/11/27 09:51:58;;;;;;;11.30;6.75;;;;;;;5.77;54.75;91915.56;2047682;70;20190;-81
2023/11/27 09:54:30;;;;;;;12.73;6.18;;;;;;;5.85;54.17;91902.13;2047703;70;20597;-85
2023/11/27 09:56:56;;;;;;;12.93;6.38;;;;;;;5.95;53.47;91896.50;2047555;70;20143;-86
2023/11/27 09:59:24;;;;;;;14.80;6.30;;;;;;;6.17;52.79;91886.75;2047618;70;20206;-85
2023/11/27 10:01:50;;;;;;;11.75;5.78;;;;;;;6.07;52.11;91880.50;2047602;70;20146;-86
2023/11/27 10:04:16;;;;;;;8.07;4.72;;;;;;;6.50;52.16;91878.31;2047643;70;20151;-85
2023/11/27 10:06:43;;;;;;;11.65;6.05;;;;;;;5.78;50.70;91875.88;2047645;70;20146;-85
2023/11/27 10:09:13;;;;;;;7.70;4.30;;;;;;;6.34;50.17;91872.47;2047721;70;20273;-86
2023/11/27 10:11:40;;;;;;;7.32;3.80;;;;;;;7.45;50.96;91856.69;2047593;70;20241;-85
2023/11/27 10:14:08;;;;;;;7.15;3.92;;;;;;;7.83;48.18;91858.19;2047660;70;20147;-85
2023/11/27 10:16:35;;;;;;;6.68;4.03;;;;;;;8.17;46.80;91861.50;2047670;70;20151;-84
2023/11/27 10:19:16;;;;;;;11.07;5.18;;;;;;;8.79;46.62;91846.66;2047755;70;20245;-85
2023/11/27 10:21:42;;;;;;;11.15;4.47;;;;;;;9.12;47.32;91835.06;2047778;70;20142;-83
2023/11/27 10:24:10;;;;;;;12.05;5.90;;;;;;;10.21;45.58;91830.63;2047633;70;20197;-83
2023/11/27 10:26:38;;;;;;;13.18;9.43;;;;;;;10.06;44.37;91822.88;2047448;70;20170;-81
2023/11/27 10:29:06;;;;;;;18.23;9.13;;;;;;;9.63;45.04;91812.38;2047508;70;20161;-81
2023/11/27 10:31:33;;;;;;;10.48;4.90;;;;;;;9.52;45.66;91816.75;2047462;70;20147;-81
2023/11/27 10:33:59;;;;;;;6.90;4.03;;;;;;;10.31;42.97;91799.47;2047564;70;20257;-81
2023/11/27 10:36:25;;;;;;;4.75;2.97;;;;;;;9.48;42.17;91798.94;2047659;70;20159;-79
2023/11/27 10:39:14;;;;;;;10.05;5.93;;;;;;;9.12;44.96;91778.91;2047483;70;20206;-81
2023/11/27 10:41:55;;;;;;;9.02;5.93;;;;;;;9.86;44.86;91772.75;2047465;70;20118;-78
2023/11/27 10:44:25;;;;;;;6.22;3.90;;;;;;;10.71;42.95;91758.41;2047072;70;20262;-82
2023/11/27 10:46:53;;;;;;;5.20;3.70;;;;;;;10.59;42.79;91760.69;2047718;70;20151;-81
2023/11/27 10:49:21;;;;;;;6.38;3.42;;;;;;;10.80;40.63;91760.25;2044174;70;20225;-81
2023/11/27 10:51:48;;;;;;;53.40;29.88;;;;;;;9.53;41.48;91755.66;2044303;70;20150;-81
2023/11/27 10:54:14;;;;;;;11.70;5.65;;;;;;;11.17;43.38;91753.41;2047398;70;20199;-81
2023/11/27 10:56:47;;;;;;;11.05;5.07;;;;;;;13.30;40.75;91754.06;2047525;70;20174;-79
2023/11/27 10:59:14;;;;;;;11.18;5.50;;;;;;;14.63;38.80;91748.56;2047596;70;20603;-80
2023/11/27 11:01:43;;;;;;;10.43;5.85;;;;;;;16.15;36.97;91751.38;2047440;70;20145;-81
2023/11/27 11:04:26;;;;;;;9.38;5.45;;;;;;;15.89;35.13;91739.34;2047428;70;20200;-83
2023/11/27 11:06:55;;;;;;;5.07;3.42;;;;;;;16.12;33.77;91743.47;2047581;70;20166;-82
2023/11/27 11:09:25;;;;;;;5.80;3.22;;;;;;;17.77;32.73;91739.34;2047441;70;20142;-80
2023/11/27 11:11:55;;;;;;;5.45;3.20;;;;;;;17.56;31.69;91722.56;2044169;70;20151;-81
2023/11/27 11:14:24;;;;;;;4.50;2.72;;;;;;;15.77;31.76;91733.38;2047528;70;20158;-82
2023/11/27 11:17:17;;;;;;;5.85;3.33;;;;;;;13.77;33.77;91711.13;2047761;70;20167;-82
2023/11/27 11:20:25;;;;;;;6.95;3.88;;;;;;;13.40;36.91;91703.53;2048136;70;20504;-82
2023/11/27 11:23:16;;;;;;;5.43;2.83;;;;;;;11.58;37.08;91688.19;2048144;70;20158;-82
2023/11/27 11:25:51;;;;;;;7.38;3.95;;;;;;;10.46;39.29;91679.91;2044814;70;20230;-82
2023/11/27 11:28:33;;;;;;;8.32;5.00;;;;;;;10.04;40.72;91677.31;2048058;70;20139;-85
2023/11/27 11:31:09;;;;;;;7.82;4.65;;;;;;;11.02;40.47;91669.66;2047984;70;20293;-81